| Station | Date | Time | Temp (°F) | RH (%) | Dew Pt (°F) | Wind Spd (mph) | Wind Dir (°) | Wind Gust (mph) | Latest Rain (In) | Daily Rain (In) | Daily Max Temp (°F) | Daily Min Temp (°F) |
|---|---|---|---|---|---|---|---|---|---|---|---|---|
| Montesol | 9/3/26 | 1215 | 60.4 1.9 | - | - | - | - | - | 0.00 | 0.52 | 60.6 0.9 | 52.3 0.2 |
| Pope Valley (Weeks Lake) | 9/3/26 | 1215 | 63.6 4.7 | 88 28 | 60.0 5.9 | 2.5 2.0 | SSE | 159 | 7.2 1.1 | 0.00 | 0.00 | 65.4 3.4 | 57.1 8.3 |
| Dollarhide Base | 9/3/26 | 1215 | 66.4 6.2 | 84 19 | 61.3 1.4 | 4.7 1.6 | SSE | 166 | 9.8 1.4 | 0.00 | 0.00 | 69.5 5.8 | 58.0 1.3 |
| Dollarhide 16A Remote | 9/3/26 | 1215 | 66.0 2.8 | 85 12 | 61.3 1.8 | - | - | - | - | - | 68.2 1.6 | 57.6 0.5 |
| Hardin Rd (Eakle) | 9/3/26 | 1215 | 65.0 3.2 | - | - | - | - | - | - | - | 68.8 1.5 | 58.8 4.3 |
| Angwin | 9/3/26 | 1215 | 56.7 0.9 | 100 0 | 56.6 0.9 | 5.1 1.6 | SE | 134 | 15.8 4.9 | 0.01 | 0.17 | 56.8 0.0 | 51.6 0.6 |
| Lower Angwin (Pioneer) | 9/3/26 | 1215 | 58.2 3.0 | - | - | 3.0 0.4 | SSW | 205 | 7.5 1.2 | - | - | 58.4 3.6 | 53.5 1.1 |
| Las Posadas (Cal Fire) | 9/3/26 | 1215 | 60.0 2.5 | 98 12 | 59.6 1.2 | 6.4 2.0 | S | 188 | 10.3 4.0 | 0.00 | 0.08 | 60.2 2.9 | 54.9 2.0 |
| Lower Chiles Valley (Brown) | 9/3/26 | 1215 | 63.9 0.1 | 84 4 | 58.9 1.6 | 2.5 0.3 | SE | 136 | 9.2 3.6 | 0.00 | 0.00 | 67.5 2.4 | 55.2 8.1 |
| Moss Creek Vineyard/Reservior | 9/3/26 | 1145 | 61.0 2.3 | 90 5 | 58.0 0.6 | - | - | - | 0.00 | 0.00 | 61.2 3.3 | 52.8 0.0 |
| Max | 66.4 | 100 | 61.3 | 6.4 | - | 15.8 | 0.01 | 0.52 | 69.5 | 58.8 | ||
| Avg | 62.1 | 90 | 59.4 | 4.0 | - | 10.0 | 0.00 | - | - | - | ||
| Min | 56.7 | 84 | 56.6 | 2.5 | - | 7.2 | 0.00 | 0.00 | 56.8 | 51.6 |
| Station | Date | Time | Temp (°F) | RH (%) | Dew Pt (°F) | Wind Spd (mph) | Wind Dir (°) | Wind Gust (mph) | Latest Rain (In) | Daily Rain (In) | Daily Max Temp (°F) | Daily Min Temp (°F) |
|---|---|---|---|---|---|---|---|---|---|---|---|---|
| Tenma (North Calistoga) | 9/3/26 | 1215 | 65.6 3.7 | - | - | - | - | - | 0.01 | 0.10 | 65.6 4.8 | 55.7 0.7 |
| Calistoga-Solari | 9/3/26 | 1215 | 64.5 3.0 | 88 16 | 61.1 2.6 | 5.1 0.5 | W | 271 | 10.9 0.2 | 0.00 | 0.11 | 65.4 2.7 | 55.4 1.0 |
| Calistoga-North | 9/3/26 | 1215 | 64.2 5.7 | 96 25 | 63.0 2.9 | - | - | - | 0.00 | 0.06 | 64.7 6.1 | 56.9 1.0 |
| Twomey Calistoga | 9/3/26 | 1215 | 67.1 3.6 | 85 20 | 62.6 4.0 | 3.1 0.8 | NW | 318 | 9.9 4.0 | 0.00 | 0.07 | 68.7 2.0 | 55.4 5.6 |
| Paloma | 9/3/26 | 1215 | 64.6 6.6 | 92 28 | 62.2 3.9 | 2.2 1.6 | NE | 47 | 6.4 2.0 | 0.03 | 0.06 | 65.0 6.2 | 57.8 1.7 |
| Calistoga (Ranch 78) | 9/3/26 | 1215 | 65.5 4.0 | 87 18 | 61.6 2.6 | 3.8 2.5 | NW | 306 | 10.0 4.5 | 0.01 | 0.05 | 66.5 3.0 | 55.8 1.1 |
| Diamond Mtn (Schramsberg) | 9/3/26 | 1215 | 64.4 0.1 | 100 16 | 64.5 5.0 | - | - | - | 0.00 | 0.06 | 65.1 0.4 | 55.3 0.5 |
| Diamond Mtn (McEachran) | 9/3/26 | 1215 | 64.2 0.2 | 94 11 | 62.4 3.5 | - | - | - | - | - | 64.9 0.0 | 56.3 0.4 |
| Deer Park | 9/3/26 | 1215 | 62.3 5.5 | 94 26 | 60.5 3.9 | 5.2 2.0 | SE | 130 | 9.5 1.9 | 0.00 | 0.02 | 62.9 6.6 | 56.8 0.8 |
| St. Helena-North | 9/3/26 | 1215 | 64.0 5.4 | 91 24 | 61.2 3.2 | 3.0 1.6 | SSE | 158 | 7.2 0.7 | 0.01 | 0.09 | 64.6 5.3 | 56.0 0.1 |
| St. Helena (NVV Office) | 9/3/26 | 1215 | 64.6 4.3 | - | - | 3.1 1.9 | ESE | 112 | 7.2 3.6 | 0.01 | 0.01 | 65.3 4.3 | 57.5 1.7 |
| Tiara Fria (East St. Helena) | 9/3/26 | 1215 | 65.0 2.7 | 90 18 | 61.9 3.7 | 4.3 1.6 | ESE | 112 | 8.0 2.3 | 0.00 | 0.00 | 65.4 2.6 | 56.8 3.3 |
| Prisoner Winery | 9/3/26 | 1215 | 68.4 1.4 | 85 11 | 63.8 2.5 | 2.2 0.6 | SE | 130 | 5.7 3.1 | 0.00 | 0.00 | 69.1 3.2 | 53.0 0.3 |
| Rutherford Hill Estate | 9/3/26 | 1215 | 64.4 2.3 | 87 8 | 60.6 0.6 | 2.0 1.1 | S | 171 | 6.6 1.5 | 0.00 | 0.00 | 65.7 1.4 | 56.4 0.6 |
| Rutherford-North (Mee Ln) | 9/3/26 | 1215 | 65.3 1.8 | 87 9 | 61.4 1.5 | 5.3 0.8 | SE | 128 | 9.6 2.6 | 0.00 | 0.00 | 66.6 1.0 | 50.9 0.9 |
| Rutherford (STS) | 9/3/26 | 1215 | 67.3 2.6 | 90 13 | 64.2 1.9 | 3.2 0.4 | SE | 138 | 7.9 5.4 | 0.00 | 0.00 | 68.7 1.8 | 51.2 1.1 |
| Silver Oak OV | 9/3/26 | 1215 | 65.8 0.1 | 83 3 | 60.4 0.9 | 7.2 0.5 | SE | 130 | 11.0 0.3 | 0.00 | 0.00 | 67.0 0.2 | 51.2 1.3 |
| Oakville-NE (Ranch 88) | 9/3/26 | 1215 | 66.7 0.6 | 78 5 | 59.6 1.5 | 5.4 0.2 | S | 173 | 12.8 1.2 | 0.00 | 0.00 | 67.7 1.0 | 49.9 1.7 |
| Crossroads Ranch | 9/3/26 | 1215 | 66.5 0.3 | 83 2 | 61.1 0.8 | 7.3 0.0 | SE | 139 | 12.2 0.1 | 0.00 | 0.00 | 67.4 0.7 | 52.0 0.8 |
| Oakville | 9/3/26 | 1215 | 65.8 0.1 | 83 3 | 60.4 1.1 | 7.0 0.6 | SE | 125 | 12.3 1.8 | 0.00 | 0.00 | 67.0 0.7 | 52.2 0.4 |
| To Kalon Remote (TKKE) | 9/3/26 | 1215 | 66.8 3.6 | - | - | - | - | - | - | - | 69.7 1.8 | 54.8 1.2 |
| To Kalon | 9/3/26 | 1215 | 66.6 2.5 | 85 15 | 61.9 2.9 | 4.2 0.3 | SE | 143 | 8.4 0.3 | 0.00 | 0.00 | 69.8 0.3 | 56.6 3.0 |
| To Kalon Remote (TKN5) | 9/3/26 | 1215 | 68.0 1.5 | - | - | - | - | - | - | - | 72.0 1.5 | 56.7 3.1 |
| Jump Rock | 9/3/26 | 1215 | 59.6 0.7 | 97 1 | 58.7 0.4 | 3.1 0.1 | SW | 214 | 8.0 0.1 | 0.01 | 0.01 | 61.7 1.3 | 47.9 4.2 |
| State Lane Ranch | 9/3/26 | 1215 | 65.4 0.6 | 85 4 | 60.9 0.8 | 6.8 1.7 | ESE | 121 | 11.8 2.4 | 0.00 | 0.00 | 66.8 0.1 | 54.7 4.2 |
| Yountville (Ranch 67) | 9/3/26 | 1215 | 65.1 1.3 | 82 6 | 59.4 0.9 | 4.4 0.7 | ESE | 105 | 9.9 2.6 | 0.00 | 0.00 | 65.6 0.4 | 54.6 3.4 |
| Borreo (Soda Canyon) | 9/3/26 | 1145 | 62.9 1.9 | 81 13 | 56.8 2.2 | 3.1 0.1 | SSE | 161 | 8.5 2.3 | 0.00 | 0.00 | 63.0 1.9 | 53.6 2.8 |
| Wappo Hill Floor | 9/3/26 | 1215 | 64.7 0.9 | 88 10 | 61.0 2.3 | 4.8 3.1 | SSE | 163 | 10.9 4.6 | 0.00 | 0.00 | 66.2 1.5 | 55.7 3.6 |
| Wappo Hill | 9/3/26 | 1215 | 64.8 1.4 | 87 2 | 60.8 0.6 | 6.9 5.4 | SSE | 151 | 13.0 8.6 | 0.00 | 0.00 | 66.2 1.5 | 56.3 1.7 |
| Stags Leap Dist (Chimney Rock) | 9/3/26 | 1215 | 65.0 0.1 | 89 2 | 61.6 0.5 | 3.4 1.0 | SSE | 168 | 7.1 2.1 | 0.00 | 0.00 | 66.6 0.9 | 55.2 2.8 |
| Stags Leap Dist (Silverado Vineyards) | 9/3/26 | 1215 | 64.9 1.6 | 81 7 | 59.1 0.8 | 3.8 0.9 | ESE | 112 | 8.7 2.2 | 0.00 | 0.00 | 65.7 1.3 | 55.4 3.3 |
| Yountville-SE (Ranch 85) | 9/3/26 | 1215 | 64.9 0.2 | 88 0 | 61.3 0.2 | 3.6 1.3 | SSW | 196 | 7.5 3.4 | 0.00 | 0.00 | 66.7 1.0 | 54.5 1.6 |
| Yountville-South (Ranch 87) | 9/3/26 | 1215 | 66.3 1.4 | 86 3 | 61.9 0.5 | 3.2 0.6 | SSE | 159 | 8.8 1.0 | 0.00 | 0.00 | 67.0 1.0 | 53.9 1.5 |
| Max | 68.4 | 100 | 64.5 | 7.3 | - | 13.0 | 0.03 | 0.11 | 72.0 | 57.8 | ||
| Avg | 65.2 | 88 | 61.2 | 4.3 | - | 9.3 | 0.00 | - | - | - | ||
| Min | 59.6 | 78 | 56.8 | 2.0 | - | 5.7 | 0.00 | 0.00 | 61.7 | 47.9 |
| Station | Date | Time | Temp (°F) | RH (%) | Dew Pt (°F) | Wind Spd (mph) | Wind Dir (°) | Wind Gust (mph) | Latest Rain (In) | Daily Rain (In) | Daily Max Temp (°F) | Daily Min Temp (°F) |
|---|---|---|---|---|---|---|---|---|---|---|---|---|
| Mt. Veeder | 9/3/26 | 1215 | 59.0 1.3 | 100 7 | 59.0 0.7 | 4.3 0.2 | SSE | 150 | 8.9 1.9 | 0.00 | 0.07 | 59.2 1.9 | 53.7 0.4 |
| Soda Canyon | 9/3/26 | 1215 | 64.2 0.8 | 85 2 | 59.6 1.5 | 5.0 0.1 | S | 176 | 9.4 2.4 | 0.00 | 0.00 | 66.0 0.2 | 52.2 0.7 |
| Big Ranch Rd | 9/3/26 | 1215 | 65.9 0.5 | - | - | - | - | - | - | - | 67.0 0.1 | 53.1 0.4 |
| Oak Knoll-East (Ranch 53) | 9/3/26 | 1215 | 64.8 2.5 | 85 6 | 60.2 0.4 | 4.6 0.3 | SSW | 194 | 11.4 1.2 | 0.00 | 0.00 | 66.7 1.5 | 52.2 0.9 |
| Napa-NW (Ranch 54) | 9/3/26 | 1215 | 67.8 2.5 | 83 11 | 62.6 1.5 | 1.6 0.6 | S | 179 | 6.8 1.8 | 0.00 | 0.00 | 69.0 2.1 | 52.3 1.6 |
| Frisinger Napa-NW | 9/3/26 | 1215 | 65.8 2.1 | 87 8 | 61.7 0.8 | 6.5 0.9 | SSW | 201 | 11.2 0.5 | 0.00 | 0.00 | 67.6 0.5 | 52.3 1.3 |
| Napa-North (Ranch 29) | 9/3/26 | 1215 | 65.2 0.9 | 79 21 | 58.7 5.7 | 4.9 3.1 | S | 187 | 10.6 5.3 | 0.00 | 0.00 | 65.8 1.1 | 54.4 1.9 |
| Mount George (Napa East) | 9/3/26 | 1215 | 64.6 0.1 | 80 7 | 58.5 2.4 | 2.3 0.5 | S | 185 | 8.0 0.8 | 0.00 | 0.00 | 76.0 11.4 | 51.5 1.1 |
| Napa-East (Palmaz 300') | 9/3/26 | 1215 | 64.5 0.7 | 81 6 | 58.6 2.8 | 0.3 0.7 | S | 191 | 11.8 5.8 | 0.00 | 0.00 | 65.3 0.4 | 53.5 1.7 |
| Napa-East (Palmaz 1200') | 7/4/26 | 0630 | 49.8 0.1 | 72 2 | 40.8 1.0 | 0.2 0.5 | E | 79 | 2.0 0.4 | - | - | 51.0 1.7 | 48.0 0.9 |
| Napa-East (Palmaz 1400') | 9/3/26 | 1215 | 58.2 1.5 | 100 0 | 58.2 1.4 | 5.2 2.0 | SSW | 200 | 15.5 5.1 | 0.00 | 0.00 | 58.5 1.5 | 53.4 0.0 |
| Wooden Valley | 9/3/26 | 1215 | 62.8 0.7 | 84 3 | 58.0 0.3 | 5.7 0.9 | SW | 219 | 13.4 3.9 | 0.00 | 0.00 | 63.6 0.7 | 56.9 6.1 |
| Napa-West Upper (Truchard) | 9/3/26 | 1215 | 66.1 0.5 | 78 18 | 59.2 3.9 | 8.4 2.2 | S | 181 | 15.8 3.7 | 0.00 | 0.00 | 66.7 0.8 | 54.8 0.8 |
| Napa-West Lower (Truchard) | 9/3/26 | 1215 | 66.5 0.1 | 76 10 | 58.6 3.5 | - | - | - | - | - | 67.3 1.6 | 49.0 0.5 |
| Sunset Rd | 9/3/26 | 1215 | 65.4 0.5 | 79 7 | 59.0 2.7 | 4.4 0.4 | SSW | 205 | 12.4 4.0 | 0.00 | 0.00 | 66.5 0.2 | 51.8 0.6 |
| Napa-South (Toyon Farms) | 9/3/26 | 1215 | 65.6 0.9 | 83 8 | 60.2 3.3 | 9.4 2.5 | S | 186 | 15.8 3.4 | 0.00 | 0.00 | 66.2 1.3 | 55.1 0.0 |
| Dealy Lane (Ranch 80) | 9/3/26 | 1215 | 66.3 2.4 | 75 1 | 58.3 2.7 | 3.2 0.5 | SSW | 198 | 9.6 0.1 | 0.00 | 0.00 | 67.1 1.7 | 51.5 0.6 |
| Carneros (Saintsbury) | 9/3/26 | 1215 | 64.4 0.0 | 79 5 | 57.6 1.7 | 8.8 0.5 | S | 188 | 14.1 0.4 | 0.00 | 0.00 | 65.8 0.6 | 51.4 0.4 |
| Suscol Lower (Ranch 35) | 9/3/26 | 1215 | 65.4 0.6 | 77 9 | 57.9 2.5 | 11.5 4.8 | SSW | 202 | 17.3 5.6 | 0.00 | 0.00 | 66.8 0.7 | 53.9 0.2 |
| Suscol Mtn (Ranch 93) | 9/3/26 | 1215 | 60.5 1.5 | 90 7 | 57.5 3.6 | 12.2 6.6 | WNW | 284 | 20.5 9.1 | 0.00 | 0.00 | 61.5 0.6 | 55.3 0.7 |
| Suscol Upper (Ranch 92) | 9/3/26 | 1215 | 61.9 0.4 | 85 69 | 57.3 94.1 | 8.4 4.9 | SW | 235 | 16.4 8.3 | 0.00 | 0.00 | 62.5 0.2 | 55.8 0.3 |
| Carneros (Mitsuko) | 9/3/26 | 1215 | 65.9 2.0 | - | - | - | - | - | - | - | 67.5 1.0 | 51.8 2.6 |
| Sugarloaf West | 9/3/26 | 1215 | 66.0 0.3 | 80 4 | 59.6 1.0 | 6.9 1.8 | S | 187 | 14.7 4.4 | 0.00 | 0.00 | 66.5 0.9 | 55.5 1.7 |
| Stanly (Ranch 45) | 9/3/26 | 1215 | 65.6 1.9 | 77 7 | 58.2 0.6 | 10.4 2.9 | WNW | 293 | 15.7 2.2 | 0.00 | 0.04 | 66.4 1.2 | 54.4 3.9 |
| Carneros (Las Amigas Rd) | 9/3/26 | 1215 | 66.1 1.7 | - | - | - | - | - | - | - | 67.9 0.1 | 53.6 1.6 |
| Carneros (Milton Rd) | 9/3/26 | 1215 | 66.6 2.0 | 75 1 | 58.4 1.6 | - | - | - | 0.00 | 0.00 | 67.6 2.0 | 52.1 1.1 |
| Carneros (Ranch 71) | 9/3/26 | 1215 | 64.9 1.7 | 81 0 | 58.8 1.5 | 5.2 1.3 | SW | 221 | 9.4 0.2 | 0.00 | 0.00 | 65.4 1.8 | 57.4 0.5 |
| Carneros Upper (Ranch 81) | 9/3/26 | 1215 | 64.8 2.4 | 80 5 | 58.5 0.7 | 11.7 3.0 | SSW | 207 | 18.6 4.7 | - | - | 64.8 2.4 | 57.1 0.3 |
| Carneros Lower (Ranch 81) | 9/3/26 | 1215 | 66.1 0.5 | 78 2 | 59.2 1.3 | 2.6 1.7 | S | 188 | 11.2 0.9 | 0.00 | 0.00 | 66.5 0.1 | 53.7 1.7 |
| Toyon Remote 1 | 9/3/26 | 1215 | 66.3 1.4 | - | - | - | - | - | - | - | 66.7 2.3 | 50.5 0.2 |
| Toyon Remote 2 | 9/3/26 | 1215 | 66.1 1.8 | - | - | - | - | - | - | - | 66.7 2.9 | 50.9 0.2 |
| Toyon Remote 3 | 9/3/26 | 1215 | 66.3 2.9 | - | - | - | - | - | - | - | 66.9 3.3 | 50.3 0.1 |
| Max | 67.8 | 100 | 62.6 | 12.2 | - | 20.5 | 0.00 | 0.07 | 76.0 | 57.4 | ||
| Avg | 64.8 | 82 | 58.9 | 6.2 | - | 13.0 | 0.00 | - | - | - | ||
| Min | 58.2 | 75 | 57.3 | 0.3 | - | 6.8 | 0.00 | 0.00 | 58.5 | 49.0 |